Morris, MN

1:27 AM CDT on September 01, 2016 (GMT -0500)
Morris Municipal

Weather History for KMOX - October, 2013

Change the Weather History Date:

Sunday, October 20, 2013

  Actual Average Record
Temperature  
Mean Temperature 36 °F -  
Max Temperature 39 °F 53 °F 80 °F (2003)
Min Temperature 32 °F 33 °F 19 °F (2011)
Degree Days  
Heating Degree Days 30    
Moisture  
Dew Point 33 °F    
Average Humidity 87    
Maximum Humidity 93    
Minimum Humidity 75    
Precipitation  
Precipitation 0.20 in - - ()
Sea Level Pressure  
Sea Level Pressure 29.73 in    
Wind  
Wind Speed 11 mph (East)    
Max Wind Speed 21 mph    
Max Gust Speed 31 mph    
Visibility 9 miles    
Events Rain , Snow    
Averages and records for this station are not official NWS values.
T = Trace of Precipitation, MM = Missing Value Source: NWS Daily Summary

Daily Weather History Graph

Daily Weather History Graph

Search for Another Location

Airport or City:

Trip Planner

Search our weather history database for the weather conditions in past years. The results will help you decide how hot, cold, wet, or windy it might be!

Date:

Astronomy

Oct. 20, 2013 Rise Set
Actual Time 7:47 AM CDT 6:29 PM CDT
Civil Twilight 7:17 AM CDT 6:59 PM CDT
Nautical Twilight 6:42 AM CDT 7:33 PM CDT
Astronomical Twilight 6:08 AM CDT 8:07 PM CDT
Moon 7:32 PM CDT (10/20) 9:31 AM CDT (10/20)
Length of Visible Light 11h 42m
Length of Day
10h 41m
Full, 97% of the Moon is Illuminated
Oct 20
Full
Oct 26
Last Quarter
Nov 3
New
Nov 9
First Quarter
Nov 17
Full

Hourly Weather History & Observations

Time (CDT) Temp. Windchill Dew Point Humidity Pressure Visibility Wind Dir Wind Speed Gust Speed Precip Events Conditions
12:06 AM 33.8 °F 27.7 °F 30.2 °F 87% 29.74 in 10.0 mi SSE 6.9 mph - N/A   Overcast
12:26 AM 33.8 °F 28.6 °F 30.2 °F 87% 29.73 in 10.0 mi SSE 5.8 mph - N/A   Overcast
12:46 AM 35.6 °F 30.7 °F 30.2 °F 81% 29.72 in 10.0 mi SE 5.8 mph - N/A   Overcast
1:06 AM 35.6 °F 29.9 °F 30.2 °F 81% 29.72 in 10.0 mi SSE 6.9 mph - N/A   Mostly Cloudy
1:26 AM 35.6 °F 30.7 °F 32.0 °F 87% 29.71 in 10.0 mi SSE 5.8 mph - N/A   Overcast
1:46 AM 35.6 °F 29.9 °F 30.2 °F 81% 29.72 in 10.0 mi South 6.9 mph - N/A   Overcast
2:06 AM 35.6 °F 29.2 °F 30.2 °F 81% 29.72 in 10.0 mi South 8.1 mph - N/A   Overcast
2:26 AM 35.6 °F 27.1 °F 30.2 °F 81% 29.71 in 7.0 mi South 12.7 mph - N/A Snow Light Snow
2:46 AM 35.6 °F 27.5 °F 32.0 °F 87% 29.70 in 7.0 mi SSE 11.5 mph - N/A   Drizzle
3:06 AM 35.6 °F 28.0 °F 32.0 °F 87% 29.70 in 10.0 mi SSE 10.4 mph - N/A   Light Drizzle
3:26 AM 35.6 °F 28.0 °F 32.0 °F 87% 29.68 in 7.0 mi SSE 10.4 mph - 0.01 in Rain Light Rain
3:46 AM 35.6 °F 28.0 °F 33.8 °F 93% 29.67 in 10.0 mi SE 10.4 mph - 0.01 in   Drizzle
4:06 AM 35.6 °F 27.5 °F 33.8 °F 93% 29.66 in 10.0 mi SSE 11.5 mph - 0.01 in Rain Light Rain
4:26 AM 35.6 °F 27.1 °F 33.8 °F 93% 29.65 in 10.0 mi SE 12.7 mph - 0.01 in   Light Drizzle
4:46 AM 35.6 °F 27.5 °F 33.8 °F 93% 29.65 in 10.0 mi SE 11.5 mph - 0.01 in   Overcast
5:06 AM 35.6 °F 27.5 °F 33.8 °F 93% 29.64 in 10.0 mi SE 11.5 mph - N/A   Overcast
5:26 AM 35.6 °F 27.1 °F 33.8 °F 93% 29.64 in 10.0 mi SE 12.7 mph - N/A   Light Drizzle
5:46 AM 35.6 °F 26.6 °F 33.8 °F 93% 29.63 in 10.0 mi SE 13.8 mph - N/A   Overcast
6:06 AM 35.6 °F 27.1 °F 33.8 °F 93% 29.62 in 10.0 mi SE 12.7 mph - N/A   Light Drizzle
6:26 AM 35.6 °F 26.6 °F 33.8 °F 93% 29.62 in 10.0 mi SE 13.8 mph - N/A   Overcast
6:46 AM 35.6 °F 26.6 °F 33.8 °F 93% 29.61 in 10.0 mi SE 13.8 mph - N/A Rain Light Rain
7:06 AM 35.6 °F 26.6 °F 33.8 °F 93% 29.61 in 7.0 mi SE 13.8 mph - 0.02 in Rain Light Rain
7:26 AM 35.6 °F 27.1 °F 33.8 °F 93% 29.60 in 5.0 mi SE 12.7 mph - 0.07 in Rain Light Rain
7:46 AM 35.6 °F 26.6 °F 33.8 °F 93% 29.60 in 5.0 mi SSE 13.8 mph - 0.11 in Rain Light Rain
8:06 AM 35.6 °F 25.9 °F 33.8 °F 93% 29.59 in 7.0 mi SSE 16.1 mph - 0.01 in Rain Rain
8:26 AM 35.6 °F 27.5 °F 33.8 °F 93% 29.60 in 7.0 mi SSE 11.5 mph - 0.03 in Rain Rain
8:46 AM 35.6 °F 27.5 °F 33.8 °F 93% 29.60 in 5.0 mi SE 11.5 mph - 0.05 in Rain Rain
9:06 AM 35.6 °F 27.1 °F 33.8 °F 93% 29.60 in 5.0 mi SE 12.7 mph - N/A   Light Drizzle
9:26 AM 35.6 °F 26.2 °F 33.8 °F 93% 29.59 in 10.0 mi SE 15.0 mph - 0.01 in   Light Drizzle
9:46 AM 35.6 °F 27.1 °F 33.8 °F 93% 29.59 in 10.0 mi SE 12.7 mph - 0.01 in   Light Drizzle
10:06 AM 35.6 °F 28.6 °F 33.8 °F 93% 29.59 in 10.0 mi SE 9.2 mph - N/A   Overcast
10:26 AM 37.4 °F 30.8 °F 35.6 °F 93% 29.59 in 10.0 mi SE 9.2 mph - N/A   Overcast
10:46 AM 37.4 °F 30.8 °F 35.6 °F 93% 29.60 in 10.0 mi SE 9.2 mph - N/A   Overcast
11:06 AM 37.4 °F 32.1 °F 35.6 °F 93% 29.60 in 7.0 mi SE 6.9 mph - N/A Rain Light Rain
11:26 AM 39.2 °F 37.0 °F 35.6 °F 87% 29.61 in 10.0 mi SE 3.5 mph - N/A   Light Drizzle
11:46 AM 39.2 °F - 35.6 °F 87% 29.61 in 10.0 mi Calm Calm - N/A   Light Drizzle
12:06 PM 39.2 °F - 35.6 °F 87% 29.62 in 10.0 mi Calm Calm - N/A Rain Light Rain
12:26 PM 39.2 °F - 37.4 °F 93% 29.63 in 10.0 mi Calm Calm - 0.01 in Rain Light Rain
12:46 PM 39.2 °F 33.6 °F 37.4 °F 93% 29.64 in 10.0 mi WNW 8.1 mph - 0.01 in   Light Drizzle
1:06 PM 39.2 °F 32.5 °F 37.4 °F 93% 29.64 in 10.0 mi NW 10.4 mph - N/A   Light Drizzle
1:26 PM 39.2 °F 30.5 °F 37.4 °F 93% 29.66 in 5.0 mi NNW 16.1 mph - N/A   Light Drizzle
1:46 PM 39.2 °F 30.5 °F 37.4 °F 93% 29.67 in 10.0 mi NNW 16.1 mph - N/A   Overcast
2:06 PM 39.2 °F 30.5 °F 37.4 °F 93% 29.68 in 10.0 mi NNW 16.1 mph - N/A   Overcast
2:26 PM 39.2 °F 30.2 °F 37.4 °F 93% 29.69 in 10.0 mi North 17.3 mph 23.0 mph N/A   Overcast
2:46 PM 39.2 °F 29.6 °F 35.6 °F 87% 29.70 in 10.0 mi North 19.6 mph - N/A   Overcast
3:06 PM 39.2 °F 29.8 °F 35.6 °F 87% 29.72 in 10.0 mi North 18.4 mph 23.0 mph N/A   Overcast
3:26 PM 39.2 °F 30.5 °F 35.6 °F 87% 29.73 in 10.0 mi North 16.1 mph 24.2 mph N/A   Overcast
3:46 PM 39.2 °F 29.6 °F 35.6 °F 87% 29.75 in 10.0 mi North 19.6 mph - N/A   Overcast
4:06 PM 39.2 °F 29.8 °F 35.6 °F 87% 29.77 in 10.0 mi North 18.4 mph - N/A   Overcast
4:26 PM 39.2 °F 29.8 °F 35.6 °F 87% 29.78 in 7.0 mi North 18.4 mph - N/A   Overcast
4:46 PM 39.2 °F 29.8 °F 35.6 °F 87% 29.79 in 10.0 mi NNW 18.4 mph - N/A   Overcast
5:06 PM 39.2 °F 30.5 °F 35.6 °F 87% 29.80 in 10.0 mi NNW 16.1 mph - N/A   Mostly Cloudy
5:26 PM 39.2 °F 30.5 °F 35.6 °F 87% 29.81 in 10.0 mi NNW 16.1 mph - N/A   Mostly Cloudy
5:46 PM 39.2 °F 30.5 °F 35.6 °F 87% 29.82 in 10.0 mi NNW 16.1 mph 21.9 mph N/A   Mostly Cloudy
6:06 PM 37.4 °F 28.5 °F 33.8 °F 87% 29.84 in 5.0 mi NNW 15.0 mph 24.2 mph N/A Rain Light Rain
6:26 PM 37.4 °F 28.5 °F 35.6 °F 93% 29.85 in 10.0 mi NNW 15.0 mph - N/A   Overcast
6:46 PM 37.4 °F 27.8 °F 33.8 °F 87% 29.86 in 10.0 mi NNW 17.3 mph 31.1 mph N/A   Overcast
7:06 PM 37.4 °F 26.9 °F 33.8 °F 87% 29.87 in 10.0 mi NNW 20.7 mph 26.5 mph N/A   Overcast
7:26 PM 35.6 °F 25.9 °F 32.0 °F 87% 29.89 in 10.0 mi NNW 16.1 mph 27.6 mph N/A   Overcast
7:46 PM 35.6 °F 24.8 °F 30.2 °F 81% 29.89 in 10.0 mi NNW 19.6 mph 24.2 mph N/A   Overcast
8:06 PM 35.6 °F 25.2 °F 28.4 °F 75% 29.91 in 10.0 mi NNW 18.4 mph - N/A   Overcast
8:26 PM 35.6 °F 26.2 °F 30.2 °F 81% 29.91 in 10.0 mi NNW 15.0 mph - N/A   Overcast
8:46 PM 35.6 °F 27.5 °F 28.4 °F 75% 29.92 in 10.0 mi NNW 11.5 mph - N/A   Overcast
9:06 PM 35.6 °F 28.6 °F 30.2 °F 81% 29.93 in 10.0 mi NNW 9.2 mph - N/A   Overcast
9:26 PM 35.6 °F 27.1 °F 28.4 °F 75% 29.94 in 10.0 mi NW 12.7 mph - N/A   Overcast
9:46 PM 35.6 °F 27.5 °F 28.4 °F 75% 29.94 in 10.0 mi NNW 11.5 mph - N/A   Overcast
10:06 PM 35.6 °F 27.5 °F 28.4 °F 75% 29.95 in 10.0 mi NNW 11.5 mph - N/A   Overcast
10:26 PM 32.0 °F 23.0 °F - N/A% 29.95 in 10.0 mi NNW 11.5 mph - N/A   Overcast
10:46 PM 33.8 °F - 26.6 °F 75% 29.95 in 10.0 mi North - - N/A   Overcast
11:06 PM 33.8 °F 25.8 °F 26.6 °F 75% 29.95 in 10.0 mi NW 10.4 mph - N/A   Overcast
11:26 PM 33.8 °F 25.3 °F 26.6 °F 75% 29.95 in 10.0 mi NNW 11.5 mph - N/A   Overcast
11:46 PM 33.8 °F 25.8 °F 26.6 °F 75% 29.95 in 10.0 mi NNW 10.4 mph - N/A   Overcast